地図

経路データ

SID SEASON NUMBER BASIN SUBBASIN NAME ISO_TIME NATURE LAT LON WMO_WIND WMO_PRES WMO_AGENCY TRACK_TYPE DIST2LAND LANDFALL IFLAG USA_AGENCY USA_ATCF_ID USA_LAT USA_LON USA_RECORD USA_STATUS USA_WIND USA_PRES USA_SSHS USA_R34_NE USA_R34_SE USA_R34_SW USA_R34_NW USA_R50_NE USA_R50_SE USA_R50_SW USA_R50_NW USA_R64_NE USA_R64_SE USA_R64_SW USA_R64_NW USA_POCI USA_ROCI USA_RMW USA_EYE TOKYO_LAT TOKYO_LON TOKYO_GRADE TOKYO_WIND TOKYO_PRES TOKYO_R50_DIR TOKYO_R50_LONG TOKYO_R50_SHORT TOKYO_R30_DIR TOKYO_R30_LONG TOKYO_R30_SHORT TOKYO_LAND CMA_LAT CMA_LON CMA_CAT CMA_WIND CMA_PRES HKO_LAT HKO_LON HKO_CAT HKO_WIND HKO_PRES NEWDELHI_LAT NEWDELHI_LON NEWDELHI_GRADE NEWDELHI_WIND NEWDELHI_PRES NEWDELHI_CI NEWDELHI_DP NEWDELHI_POCI REUNION_LAT REUNION_LON REUNION_TYPE REUNION_WIND REUNION_PRES REUNION_TNUM REUNION_CI REUNION_RMW REUNION_R34_NE REUNION_R34_SE REUNION_R34_SW REUNION_R34_NW REUNION_R50_NE REUNION_R50_SE REUNION_R50_SW REUNION_R50_NW REUNION_R64_NE REUNION_R64_SE REUNION_R64_SW REUNION_R64_NW BOM_LAT BOM_LON BOM_TYPE BOM_WIND BOM_PRES BOM_TNUM BOM_CI BOM_RMW BOM_R34_NE BOM_R34_SE BOM_R34_SW BOM_R34_NW BOM_R50_NE BOM_R50_SE BOM_R50_SW BOM_R50_NW BOM_R64_NE BOM_R64_SE BOM_R64_SW BOM_R64_NW BOM_ROCI BOM_POCI BOM_EYE BOM_POS_METHOD BOM_PRES_METHOD NADI_LAT NADI_LON NADI_CAT NADI_WIND NADI_PRES WELLINGTON_LAT WELLINGTON_LON WELLINGTON_WIND WELLINGTON_PRES DS824_LAT DS824_LON DS824_STAGE DS824_WIND DS824_PRES TD9636_LAT TD9636_LON TD9636_STAGE TD9636_WIND TD9636_PRES TD9635_LAT TD9635_LON TD9635_WIND TD9635_PRES TD9635_ROCI NEUMANN_LAT NEUMANN_LON NEUMANN_CLASS NEUMANN_WIND NEUMANN_PRES MLC_LAT MLC_LON MLC_CLASS MLC_WIND MLC_PRES USA_GUST BOM_GUST BOM_GUST_PER REUNION_GUST REUNION_GUST_PER USA_SEAHGT USA_SEARAD_NE USA_SEARAD_SE USA_SEARAD_SW USA_SEARAD_NW STORM_SPEED STORM_DIR
1987058S10173 1987 20 SP MM WINI 1987-02-27 00:00:00 TS -9.90000 172.500 main 818 818 O_________O_O_ jtwc_sh SH201987 -9.90000 172.500 20 -1 -9.90000 172.500 1 20 -9.90000 172.500 TC 20 15 119
1987058S10173 1987 20 SP MM WINI 1987-02-27 03:00:00 TS -10.2538 173.151 main 845 845 P_________P_P_ SH201987 -10.2676 173.117 20 -1 -10.2262 173.219 1 20 -10.2676 173.117 TC 20 15 117
1987058S10173 1987 20 SP MM WINI 1987-02-27 06:00:00 TS -10.5804 173.847 main 851 783 O_________P_O_ jtwc_sh SH201987 -10.6000 173.800 20 -1 -10.5413 173.941 1 20 -10.6000 173.800 TC 20 16 113
1987058S10173 1987 20 SP MM WINI 1987-02-27 09:00:00 TS -10.8603 174.613 main 773 700 P_________P_P_ SH201987 -10.8725 174.585 20 -1 -10.8358 174.668 1 20 -10.8725 174.585 TC 20 17 112
1987058S10173 1987 20 SP MM WINI 1987-02-27 12:00:00 TS -11.2077 175.400 30 997 wellington main 700 637 O_______O_O_O_ jtwc_sh SH201987 -11.1000 175.400 20 -1 -12.5000 175.400 30 997 -11.1000 175.400 1 20 -11.1000 175.400 TC 20 16 113
1987058S10173 1987 20 SP MM WINI 1987-02-27 15:00:00 TS -11.4836 176.130 main 637 587 P_______P_P_P_ SH201987 -11.3073 176.158 20 -1 -12.5000 175.998 30 997 -11.3282 176.139 1 21 -11.3073 176.158 TC 20 15 109
1987058S10173 1987 20 SP MM WINI 1987-02-27 18:00:00 TS -11.7078 176.856 30 997 wellington main 583 533 O_______O_P_O_ jtwc_sh SH201987 -11.5000 176.900 20 -1 -12.5000 176.700 30 997 -11.5292 176.886 1 22 -11.5000 176.900 TC 20 15 106
1987058S10173 1987 20 SP MM WINI 1987-02-27 21:00:00 TS -11.9038 177.627 main 533 493 P_______P_P_P_ SH201987 -11.6998 177.650 22 -1 -12.5001 177.570 30 997 -11.7156 177.639 1 23 -11.6998 177.650 TC 22 16 103
1987058S10173 1987 20 SP MM WINI 1987-02-28 00:00:00 TS -12.0500 178.425 30 997 wellington main 493 452 O_______O_O_O_ jtwc_sh SH201987 -11.9000 178.400 25 -1 -12.5000 178.500 30 997 -11.9000 178.400 1 25 -11.9000 178.400 TC 25 16 101
1987058S10173 1987 20 SP MM WINI 1987-02-28 03:00:00 TS -12.2037 179.202 main 452 436 P_______P_P_P_ SH201987 -12.0997 179.143 25 -1 -12.4996 179.350 32 996 -12.1158 179.172 1 25 -12.0997 179.143 TC 25 16 101
1987058S10173 1987 20 SP MM WINI 1987-02-28 06:00:00 TS -12.3573 179.987 35 995 wellington main 425 419 O_______O_P_O_ jtwc_sh SH201987 -12.3000 179.900 25 -1 -12.5000 -179.800 35 995 -12.3294 179.950 1 25 -12.3000 179.900 TC 25 16 101
1987058S10173 1987 20 SP MM WINI 1987-02-28 09:00:00 TS -12.5144 180.801 main 425 420 P_______P_P_P_ SH201987 -12.5148 -179.308 25 -1 -12.4998 -178.908 37 992 -12.5283 -179.272 1 25 -12.5148 -179.308 TC 25 16 100
1987058S10173 1987 20 SP MM WINI 1987-02-28 12:00:00 TS -12.6500 181.625 40 990 wellington main 442 432 O_______O_O_O_ jtwc_sh SH201987 -12.7000 -178.500 25 -1 -12.5000 -178.000 40 990 -12.7000 -178.500 1 25 -12.7000 -178.500 TC 25 16 98
1987058S10173 1987 20 SP MM WINI 1987-02-28 15:00:00 TS -12.7375 182.450 main 475 440 P_______P_P_P_ SH201987 -12.8149 -177.685 25 -1 -12.4923 -177.092 40 990 -12.8281 -177.738 1 26 -12.8149 -177.685 TC 25 16 96
1987058S10173 1987 20 SP MM WINI 1987-02-28 18:00:00 TS -12.8073 183.254 40 990 wellington main 429 353 O_______O_P_O_ jtwc_sh SH201987 -12.9000 -176.900 25 -1 -12.5000 -176.200 40 990 -12.9291 -176.984 1 27 -12.9000 -176.900 TC 25 15 96
1987058S10173 1987 20 SP MM WINI 1987-02-28 21:00:00 TS -12.8893 184.012 main 353 276 P_______P_P_P_ SH201987 -12.9996 -176.192 27 -1 -12.5423 -175.328 40 990 -13.0156 -176.238 1 28 -12.9996 -176.192 TC 27 15 97
1987058S10173 1987 20 SP MM WINI 1987-03-01 00:00:00 TS -12.9750 184.750 40 990 wellington main 265 189 O_______O_O_O_ jtwc_sh SH201987 -13.1000 -175.500 30 -1 -12.6000 -174.500 40 990 -13.1000 -175.500 1 30 -13.1000 -175.500 TC 30 15 97
1987058S10173 1987 20 SP MM WINI 1987-03-01 03:00:00 TS -13.0622 185.499 main 189 117 P_______P_P_P_ SH201987 -13.1999 -174.750 32 -1 -12.6497 -173.727 40 990 -13.1991 -174.776 1 31 -13.1999 -174.750 TC 32 15 97
1987058S10173 1987 20 SP MM WINI 1987-03-01 06:00:00 TS -13.1497 186.236 40 990 wellington main 117 46 O_______O_P_O_ jtwc_sh SH201987 -13.3000 -174.000 35 0 -12.7000 -173.000 40 990 -13.2988 -174.057 1 32 -13.3000 -174.000 TC 35 14 97
1987058S10173 1987 20 SP MM WINI 1987-03-01 09:00:00 TS -13.2352 186.945 main 46 22 P_______P_P_P_ SH201987 -13.3996 -173.307 35 0 -12.7424 -172.270 42 988 -13.3991 -173.335 1 33 -13.3996 -173.307 TC 35 14 97
1987058S10173 1987 20 SP MM WINI 1987-03-01 12:00:00 TS -13.3250 187.650 45 987 wellington main 22 22 O_______O_O_O_ jtwc_sh SH201987 -13.5000 -172.600 35 0 -12.8000 -171.600 45 987 -13.5000 -172.600 2 35 -13.5000 -172.600 TC 35 14 97
1987058S10173 1987 20 SP MM WINI 1987-03-01 15:00:00 TS -13.4072 188.381 main 73 73 P_______P_P_P_ SH201987 -13.6000 -171.807 35 0 -12.8697 -171.035 45 987 -13.5591 -171.826 2 36 -13.6000 -171.807 TC 35 14 97
1987058S10173 1987 20 SP MM WINI 1987-03-01 18:00:00 TS -13.5062 189.115 45 987 wellington main 142 142 O_______O_P_O_ jtwc_sh SH201987 -13.7000 -171.000 35 0 -13.0000 -170.500 45 987 -13.6247 -171.041 2 37 -13.7000 -171.000 TC 35 14 99
1987058S10173 1987 20 SP MM WINI 1987-03-01 21:00:00 TS -13.6218 189.839 main 216 216 P_______P_P_P_ SH201987 -13.7773 -170.235 37 0 -13.2049 -169.915 45 987 -13.7279 -170.260 2 38 -13.7773 -170.235 TC 37 14 102
1987058S10173 1987 20 SP MM WINI 1987-03-02 00:00:00 TS -13.8000 190.550 45 987 wellington main 302 291 O_______O_O_O_ jtwc_sh SH201987 -13.9000 -169.500 40 0 -13.5000 -169.300 45 987 -13.9000 -169.500 2 40 -13.9000 -169.500 TC 40 15 107
1987058S10173 1987 20 SP MM WINI 1987-03-02 03:00:00 TS -14.0447 191.273 main 378 378 P_______P_P_P_ SH201987 -14.0972 -168.792 40 0 -13.8627 -168.613 47 986 -14.1216 -168.710 2 41 -14.0972 -168.792 TC 40 15 113
1987058S10173 1987 20 SP MM WINI 1987-03-02 06:00:00 TS -14.3802 191.962 50 985 wellington main 458 458 O_______O_P_O_ jtwc_sh SH201987 -14.4000 -168.100 40 0 -14.3000 -168.000 50 985 -14.4207 -167.951 2 42 -14.4000 -168.100 TC 40 15 120
1987058S10173 1987 20 SP MM WINI 1987-03-02 09:00:00 TS -14.7879 192.605 main 529 529 P_______P_P_P_ SH201987 -14.7826 -167.362 42 0 -14.7772 -167.590 52 982 -14.8093 -167.266 2 43 -14.7826 -167.362 TC 42 15 129
1987058S10173 1987 20 SP MM WINI 1987-03-02 12:00:00 TS -15.3000 193.150 55 980 wellington main 594 594 O_______O_O_O_ jtwc_sh SH201987 -15.3000 -166.700 45 0 -15.3000 -167.300 55 980 -15.3000 -166.700 2 45 -15.3000 -166.700 TC 45 15 140
1987058S10173 1987 20 SP MM WINI 1987-03-02 15:00:00 TS -15.9185 193.596 main 666 666 P_______P_P_P_ SH201987 -15.9624 -166.160 45 0 -15.8349 -167.035 55 980 -15.9145 -166.262 2 46 -15.9624 -166.160 TC 45 15 151
1987058S10173 1987 20 SP MM WINI 1987-03-02 18:00:00 TS -16.6059 193.913 55 980 wellington main 725 725 O_______O_P_O_ jtwc_sh SH201987 -16.7000 -165.800 45 0 -16.4000 -166.800 55 980 -16.6238 -165.948 2 47 -16.7000 -165.800 TC 45 15 160
1987058S10173 1987 20 SP MM WINI 1987-03-02 21:00:00 TS -17.2983 194.115 main 780 780 P_______P_P_P_ SH201987 -17.4073 -165.632 47 0 -17.0075 -166.543 57 977 -17.3712 -165.734 2 48 -17.4073 -165.632 TC 47 14 168
1987058S10173 1987 20 SP MM WINI 1987-03-03 00:00:00 TS -17.9750 194.225 60 975 wellington main 830 830 O_______O_O_O_ jtwc_sh SH201987 -18.1000 -165.600 50 0 -17.6000 -166.300 60 975 -18.1000 -165.600 2 50 -18.1000 -165.600 TC 50 13 172
1987058S10173 1987 20 SP MM WINI 1987-03-03 03:00:00 TS -18.6050 194.298 main 877 877 P_______P_P_P_ SH201987 -18.7725 -165.592 52 0 -18.1149 -166.092 62 972 -18.7601 -165.533 2 52 -18.7725 -165.592 TC 52 12 175
1987058S10173 1987 20 SP MM WINI 1987-03-03 06:00:00 TS -19.1970 194.342 65 970 wellington main 919 919 O_______O_P_O_ jtwc_sh SH201987 -19.4000 -165.600 55 0 -18.6000 -165.900 65 970 -19.3882 -165.531 2 55 -19.4000 -165.600 TC 55 12 175
1987058S10173 1987 20 SP MM WINI 1987-03-03 09:00:00 TS -19.7505 194.402 main 971 971 P_______P_P_P_ SH201987 -19.9800 -165.572 57 0 -19.0700 -165.707 65 970 -19.9722 -165.539 2 57 -19.9800 -165.572 TC 57 11 172
1987058S10173 1987 20 SP MM WINI 1987-03-03 12:00:00 TS -20.2750 194.500 65 970 wellington main 1017 1017 O_______O_O_O_ jtwc_sh SH201987 -20.5000 -165.500 60 0 -19.6000 -165.500 65 970 -20.5000 -165.500 2 60 -20.5000 -165.500 TC 60 11 167
1987058S10173 1987 20 SP MM WINI 1987-03-03 15:00:00 TS -20.8044 194.651 main 1072 1072 P_______P_P_P_ SH201987 -20.9725 -165.380 62 0 -20.3000 -165.258 65 970 -20.9728 -165.378 2 62 -20.9725 -165.380 TC 62 11 162
1987058S10173 1987 20 SP MM WINI 1987-03-03 18:00:00 TS -21.3000 194.850 65 970 wellington main 1119 1119 O_______O_O_O_ jtwc_sh SH201987 -21.4000 -165.200 65 1 -21.0000 -165.000 65 970 -21.4000 -165.200 3 65 -21.4000 -165.200 TC 65 10 157
1987058S10173 1987 20 SP MM WINI 1987-03-03 21:00:00 TS -21.7438 195.082 main 1173 1173 P_______P_P_P_ SH201987 -21.8150 -164.972 65 1 -21.5299 -164.757 67 967 -21.8155 -164.971 3 65 -21.8150 -164.972 TC 65 10 151
1987058S10173 1987 20 SP MM WINI 1987-03-04 00:00:00 TS -22.1500 195.350 70 965 wellington main 1220 1229 O_______O_O_O_ jtwc_sh SH201987 -22.2000 -164.700 65 1 -22.0000 -164.500 70 965 -22.2000 -164.700 4 65 -22.2000 -164.700 TC 65 10 148
1987058S10173 1987 20 SP MM WINI 1987-03-04 03:00:00 TS -22.5527 195.635 main 1283 1283 P_______P_P_P_ SH201987 -22.5650 -164.407 65 1 -22.5300 -164.208 70 965 -22.5507 -164.436 4 65 -22.5650 -164.407 TC 65 9 145
1987058S10173 1987 20 SP MM WINI 1987-03-04 06:00:00 TS -22.9183 195.937 70 965 wellington main 1328 1328 O_______O_P_O_ jtwc_sh SH201987 -22.9000 -164.100 65 1 -23.0000 -163.900 70 965 -22.8734 -164.153 4 65 -22.9000 -164.100 TC 65 9 141
1987058S10173 1987 20 SP MM WINI 1987-03-04 09:00:00 TS -23.2191 196.228 main 1374 1374 P_______P_P_P_ SH201987 -23.1923 -163.815 65 1 -23.3073 -163.614 70 965 -23.1844 -163.844 4 65 -23.1923 -163.815 TC 65 8 137
1987058S10173 1987 20 SP MM WINI 1987-03-04 12:00:00 TS -23.5250 196.550 70 965 wellington main 1426 1419 O_______O_O_O_ jtwc_sh SH201987 -23.5000 -163.500 65 1 -23.6000 -163.300 70 965 -23.5000 -163.500 4 65 -23.5000 -163.500 TC 65 10 138
1987058S10173 1987 20 SP MM WINI 1987-03-04 15:00:00 TS -23.9241 196.928 main 1479 1479 P_______P_P_P_ SH201987 -23.8999 -163.123 62 0 -24.0500 -162.915 70 965 -23.8466 -163.127 4 62 -23.8999 -163.123 TC 62 11 138
1987058S10173 1987 20 SP MM WINI 1987-03-04 18:00:00 TS -24.3249 197.346 70 965 wellington main 1540 1540 O_______O_P_O_ jtwc_sh SH201987 -24.3000 -162.700 60 0 -24.5000 -162.500 70 965 -24.1996 -162.717 4 60 -24.3000 -162.700 TC 60 11 133
1987058S10173 1987 20 SP MM WINI 1987-03-04 21:00:00 TS -24.6417 197.765 main 1599 1599 P_______P_P_P_ SH201987 -24.6073 -162.272 57 0 -24.7997 -162.122 70 965 -24.5527 -162.273 4 57 -24.6073 -162.272 TC 57 10 128
1987058S10173 1987 20 SP MM WINI 1987-03-05 00:00:00 TS -24.9500 198.225 70 965 wellington main 1651 1659 O_______O_O_O_ jtwc_sh SH201987 -24.9000 -161.800 55 0 -25.1000 -161.700 70 965 -24.9000 -161.800 2 55 -24.9000 -161.800 TC 55 11 127
1987058S10173 1987 20 SP MM WINI 1987-03-05 03:00:00 TS -25.3141 198.741 main 1718 1718 P_______P_P_P_ SH201987 -25.2500 -161.258 57 0 -25.5500 -161.173 67 967 -25.2064 -161.350 2 57 -25.2500 -161.258 TC 57 12 127
1987058S10173 1987 20 SP MM WINI 1987-03-05 06:00:00 TS -25.6775 199.284 65 970 wellington main 1792 1792 O_______O_P_O_ jtwc_sh SH201987 -25.6000 -160.700 60 0 -26.0000 -160.600 65 970 -25.5101 -160.866 2 60 -25.6000 -160.700 TC 60 12 125
1987058S10173 1987 20 SP MM WINI 1987-03-05 09:00:00 TS -25.9736 199.785 main 1851 1851 P_______P_P_P_ SH201987 -25.8768 -160.229 62 0 -26.3069 -160.079 65 970 -25.8339 -160.324 2 62 -25.8768 -160.229 TC 62 11 123
1987058S10173 1987 20 SP MM WINI 1987-03-05 12:00:00 TS -26.3000 200.350 65 970 wellington main 1910 1910 O_______O_O_O_ jtwc_sh SH201987 -26.2000 -159.700 65 1 -26.6000 -159.500 65 970 -26.2000 -159.700 4 65 -26.2000 -159.700 TC 65 14 124
1987058S10173 1987 20 SP MM WINI 1987-03-05 15:00:00 TS -26.7514 201.048 main 1998 1998 P_______P_P_P_ SH201987 -26.6773 -159.010 65 1 -26.9999 -158.788 62 972 -26.6513 -158.998 4 65 -26.6773 -159.010 TC 65 16 125
1987058S10173 1987 20 SP MM WINI 1987-03-05 18:00:00 TS -27.2352 201.848 60 975 wellington main 2087 2087 O_______O_P_O_ jtwc_sh SH201987 -27.2000 -158.200 65 1 -27.4000 -158.000 60 975 -27.1408 -158.208 4 65 -27.2000 -158.200 TC 65 17 122
1987058S10173 1987 20 SP MM WINI 1987-03-05 21:00:00 TS -27.6656 202.681 main 2190 2190 P_______P_P_P_ SH201987 -27.6719 -157.344 65 1 -27.6838 -157.251 57 977 -27.6349 -157.338 4 65 -27.6719 -157.344 TC 65 18 118
1987058S10173 1987 20 SP MM WINI 1987-03-06 00:00:00 TS -28.0750 203.600 55 980 wellington main 2285 2285 O_______O_O_O_ jtwc_sh SH201987 -28.1000 -156.400 65 1 -28.0000 -156.400 55 980 -28.1000 -156.400 4 65 -28.1000 -156.400 TC 65 19 115
1987058S10173 1987 20 SP MM WINI 1987-03-06 03:00:00 TS -28.4760 204.637 main 2389 2389 P_______P_P_P_ SH201987 -28.4647 -155.372 62 0 -28.5084 -155.309 52 982 -28.4661 -155.399 4 62 -28.4647 -155.372 TC 62 20 113
1987058S10173 1987 20 SP MM WINI 1987-03-06 06:00:00 TS -28.8502 205.715 50 985 wellington main 2500 2500 O_______O_P_O_ jtwc_sh SH201987 -28.8000 -154.300 60 0 -29.0000 -154.200 50 985 -28.8007 -154.340 4 60 -28.8000 -154.300 TC 60 20 111
1987058S10173 1987 20 SP MM WINI 1987-03-06 09:00:00 TS -29.1741 206.731 main 2597 2597 P_______P_P_P_ SH201987 -29.1420 -153.234 57 0 -29.2779 -153.348 47 986 -29.1347 -153.261 4 57 -29.1420 -153.234 TC 57 19 110
1987058S10173 1987 20 SP MM WINI 1987-03-06 12:00:00 TS -29.5000 207.725 45 987 wellington main 2694 2694 O_______O_O_O_ jtwc_sh SH201987 -29.5000 -152.200 55 0 -29.5000 -152.500 45 987 -29.5000 -152.200 2 55 -29.5000 -152.200 TC 55 19 112
1987058S10173 1987 20 SP MM WINI 1987-03-06 15:00:00 TS -29.8668 208.729 main 2799 2799 P_______P_P_P_ SH201987 -29.8688 -151.241 55 0 -29.8080 -151.416 45 987 -29.9215 -151.185 2 53 -29.8688 -151.241 TC 55 19 114
1987058S10173 1987 20 SP MM WINI 1987-03-06 18:00:00 TS -30.2594 209.721 46 987 wellington main 2903 2903 O_______O_P_O_ jtwc_sh SH201987 -30.3000 -150.300 55 0 -30.1000 -150.300 46 987 -30.3906 -150.208 2 52 -30.3000 -150.300 TC 55 18 114
1987058S10173 1987 20 SP MM WINI 1987-03-06 21:00:00 TS -30.6328 210.677 main 3001 3001 P_______P_P_P_ SH201987 -30.8244 -149.318 52 0 -30.3129 -149.364 43 988 -30.8895 -149.251 2 51 -30.8244 -149.318 TC 52 18 111
1987058S10173 1987 20 SP MM WINI 1987-03-07 00:00:00 TS -30.8857 211.643 40 990 wellington main 3091 3091 O_______O_O_O_ jtwc_sh SH201987 -31.4000 -148.300 50 0 -30.5000 -148.400 40 990 -31.4000 -148.300 2 50 -31.4000 -148.300 TC 50 18 93
1987058S10173 1987 20 SP MM WINI 1987-03-07 03:00:00 NR -30.7229 212.784 main 3177 3177 ________P_____ SH201987 -1 -30.7229 -147.216 37 992 2 TC 20 90
1987058S10173 1987 20 SP MM WINI 1987-03-07 06:00:00 NR -30.9000 214.000 35 995 wellington main 3287 3287 ________O_____ -1 -30.9000 -146.000 35 995 2 20 97
1987058S10173 1987 20 SP MM WINI 1987-03-07 09:00:00 NR -30.9806 215.093 main 3384 3384 ________P_____ -1 -30.9806 -144.907 32 996 2 18 93
1987058S10173 1987 20 SP MM WINI 1987-03-07 12:00:00 NR -31.0000 216.100 30 997 wellington main 3468 ________O_____ -1 -31.0000 -143.900 30 997 17 91

デジタル台風データ・検索

IBTrACS Databaseについて

本データベースは、米国NOAAが公開する1842年以降の世界の熱帯低気圧のベストトラックデータアーカイブInternational Best Track Archive for Climate Stewardship (IBTrACS)を、ウェブで閲覧しやすい形式に変換したものです。

最終更新日:2021-10-08